Time;durP1;ratioP1;P1;durP2;ratioP2;P2;SDS_P1;SDS_P2;PMS_P1;PMS_P2;Temp;Humidity;BMP_temperature;BMP_pressure;BME280_temperature;BME280_humidity;BME280_pressure;Samples;Min_cycle;Max_cycle;Signal;HPM_P1;HPM_P2
2024/02/02 00:01:21;;;;;;;19.48;12.52;;;5.30;99.90;;;;;;5029121;28;20037;-64
2024/02/02 00:03:48;;;;;;;19.42;12.63;;;5.30;99.90;;;;;;5024349;28;20041;-65
2024/02/02 00:06:15;;;;;;;19.48;12.43;;;5.30;99.90;;;;;;5026451;28;20048;-65
2024/02/02 00:08:47;;;;;;;16.50;11.88;;;5.30;99.90;;;;;;5029472;28;20501;-65
2024/02/02 00:11:19;;;;;;;18.65;12.65;;;5.30;99.90;;;;;;5024486;28;20046;-65
2024/02/02 00:13:51;;;;;;;20.33;12.15;;;5.30;99.90;;;;;;5010655;28;20496;-65
2024/02/02 00:16:23;;;;;;;17.08;12.00;;;5.30;99.90;;;;;;5011377;28;20116;-65
2024/02/02 00:18:55;;;;;;;18.80;12.75;;;5.30;99.90;;;;;;5027153;28;20047;-65
2024/02/02 00:21:22;;;;;;;16.23;11.15;;;5.40;99.90;;;;;;5024245;28;20030;-65
2024/02/02 00:23:54;;;;;;;18.60;11.35;;;5.40;99.90;;;;;;5028580;28;20141;-65
2024/02/02 00:26:26;;;;;;;15.55;10.88;;;5.40;99.90;;;;;;5001972;28;20049;-64
2024/02/02 00:28:58;;;;;;;16.65;11.50;;;5.40;99.90;;;;;;5025989;28;20045;-65
2024/02/02 00:31:24;;;;;;;17.23;11.57;;;5.40;99.90;;;;;;5025937;28;20117;-65
2024/02/02 00:33:51;;;;;;;18.65;12.50;;;5.40;99.90;;;;;;5007206;28;20128;-64
2024/02/02 00:36:18;;;;;;;18.92;11.70;;;5.30;99.90;;;;;;5026067;28;20037;-64
2024/02/02 00:38:51;;;;;;;18.00;12.00;;;5.20;99.90;;;;;;5027850;28;20056;-65
2024/02/02 00:41:23;;;;;;;17.83;11.77;;;5.20;99.90;;;;;;5006022;28;20034;-65
2024/02/02 00:43:50;;;;;;;17.02;12.07;;;5.10;99.90;;;;;;5026881;28;20132;-65
2024/02/02 00:46:16;;;;;;;18.05;12.60;;;5.10;99.90;;;;;;5026381;28;20042;-65
2024/02/02 00:48:48;;;;;;;16.80;11.80;;;5.10;99.90;;;;;;5029083;28;20045;-64
2024/02/02 00:51:20;;;;;;;19.58;13.27;;;5.10;99.90;;;;;;5008277;28;20569;-64
2024/02/02 00:53:52;;;;;;;18.90;12.18;;;5.10;99.90;;;;;;5031095;28;20087;-65
2024/02/02 00:56:24;;;;;;;19.67;13.63;;;5.00;99.90;;;;;;5016611;28;20130;-65
2024/02/02 00:58:56;;;;;;;21.92;13.55;;;5.10;99.90;;;;;;5027765;28;20041;-65
2024/02/02 01:01:23;;;;;;;18.52;12.55;;;5.10;99.90;;;;;;5033406;28;20053;-65
2024/02/02 01:03:51;;;;;;;19.77;14.05;;;5.10;99.90;;;;;;5013686;28;20045;-65
2024/02/02 01:06:23;;;;;;;20.42;13.38;;;5.10;99.90;;;;;;5029877;28;20045;-65
2024/02/02 01:08:55;;;;;;;20.10;13.38;;;5.00;99.90;;;;;;5031174;28;20037;-64
2024/02/02 01:11:27;;;;;;;21.80;12.75;;;4.90;99.90;;;;;;5032776;28;20062;-65
2024/02/02 01:13:54;;;;;;;19.92;12.27;;;4.90;99.90;;;;;;5031098;28;20052;-64
2024/02/02 01:16:26;;;;;;;19.13;13.18;;;4.90;99.90;;;;;;5011084;28;20042;-64
2024/02/02 01:18:58;;;;;;;18.65;12.20;;;4.90;99.90;;;;;;5016556;28;20041;-64
2024/02/02 01:21:27;;;;;;;20.90;12.85;;;4.90;99.90;;;;;;5032997;28;20123;-64
2024/02/02 01:24:00;;;;;;;15.27;11.23;;;4.80;99.90;;;;;;5011768;28;20042;-65
2024/02/02 01:26:32;;;;;;;16.80;12.00;;;4.70;99.90;;;;;;5028643;28;20128;-64
2024/02/02 01:29:04;;;;;;;19.70;12.68;;;4.60;99.90;;;;;;5011409;28;20053;-64
2024/02/02 01:31:36;;;;;;;21.08;12.73;;;4.50;99.90;;;;;;5007513;28;20042;-64
2024/02/02 01:34:03;;;;;;;18.13;12.50;;;4.50;99.90;;;;;;5032183;28;20048;-64
2024/02/02 01:36:36;;;;;;;19.45;13.55;;;4.40;99.90;;;;;;5031245;28;20041;-65
2024/02/02 01:39:10;;;;;;;19.17;12.38;;;4.30;99.90;;;;;;5028798;28;20046;-65
2024/02/02 01:41:43;;;;;;;19.38;13.35;;;4.30;99.90;;;;;;5015443;28;20037;-66
2024/02/02 01:44:10;;;;;;;19.52;13.82;;;4.30;99.90;;;;;;5003906;28;20125;-64
2024/02/02 01:46:49;;;;;;;21.73;14.30;;;4.30;99.90;;;;;;5028371;28;20049;-64
2024/02/02 01:49:16;;;;;;;23.90;14.43;;;4.30;99.90;;;;;;5022978;28;20065;-65
2024/02/02 01:51:43;;;;;;;26.08;16.00;;;4.30;99.90;;;;;;5026443;28;20057;-64
2024/02/02 01:54:15;;;;;;;24.17;14.55;;;4.20;99.90;;;;;;5029128;28;20033;-64
2024/02/02 01:56:47;;;;;;;24.60;14.98;;;4.20;99.90;;;;;;5012524;28;20066;-64
2024/02/02 01:59:19;;;;;;;22.58;14.80;;;4.20;99.90;;;;;;5028331;28;20192;-64
2024/02/02 02:01:52;;;;;;;20.77;13.77;;;4.30;99.90;;;;;;5030074;28;20038;-64
2024/02/02 02:04:23;;;;;;;22.98;14.57;;;4.30;99.90;;;;;;5014160;28;20057;-64
2024/02/02 02:06:56;;;;;;;21.88;14.48;;;4.40;99.90;;;;;;5014330;28;20041;-64
2024/02/02 02:09:28;;;;;;;20.52;13.73;;;4.40;99.90;;;;;;5031691;28;20131;-64
2024/02/02 02:12:03;;;;;;;21.00;14.60;;;4.30;99.90;;;;;;5031357;28;20045;-64
2024/02/02 02:14:30;;;;;;;20.65;13.70;;;4.40;99.90;;;;;;5025692;28;20029;-65
2024/02/02 02:17:03;;;;;;;30.88;15.70;;;4.30;99.90;;;;;;5028711;28;20038;-64
2024/02/02 02:19:36;;;;;;;22.48;15.73;;;4.30;99.90;;;;;;5004458;28;20076;-64
2024/02/02 02:22:07;;;;;;;23.00;14.35;;;4.40;99.90;;;;;;5024713;28;20049;-64
2024/02/02 02:24:34;;;;;;;22.88;14.35;;;4.30;99.90;;;;;;5011891;28;20119;-64
2024/02/02 02:27:07;;;;;;;21.80;14.00;;;4.40;99.90;;;;;;5029865;28;20049;-64
2024/02/02 02:29:39;;;;;;;22.83;15.17;;;4.40;99.90;;;;;;5011521;28;20099;-64
2024/02/02 02:32:11;;;;;;;21.75;14.13;;;4.30;99.90;;;;;;4995532;28;20296;-64
2024/02/02 02:34:43;;;;;;;22.75;14.55;;;4.30;99.90;;;;;;5012170;28;20050;-64
2024/02/02 02:37:15;;;;;;;25.65;15.00;;;4.30;99.90;;;;;;5027463;28;20114;-64
2024/02/02 02:39:47;;;;;;;23.38;14.60;;;4.30;99.90;;;;;;5025710;28;20044;-64
2024/02/02 02:42:19;;;;;;;23.98;14.02;;;4.30;99.90;;;;;;5029272;28;20501;-64
2024/02/02 02:44:51;;;;;;;23.17;15.18;;;4.30;99.90;;;;;;5011902;28;20158;-64
2024/02/02 02:47:22;;;;;;;23.60;14.45;;;4.30;99.90;;;;;;5027344;28;20037;-64
2024/02/02 02:49:55;;;;;;;23.73;15.63;;;4.30;99.90;;;;;;5028249;28;20055;-64
2024/02/02 02:52:26;;;;;;;24.30;14.80;;;4.30;99.90;;;;;;5027729;28;20041;-65
2024/02/02 02:54:58;;;;;;;25.83;15.30;;;4.30;99.90;;;;;;5030432;28;20037;-64
2024/02/02 02:57:30;;;;;;;24.38;14.90;;;4.30;99.90;;;;;;5027359;28;20043;-64
2024/02/02 03:00:03;;;;;;;23.05;13.70;;;4.30;99.90;;;;;;5007046;28;20096;-64
2024/02/02 03:02:34;;;;;;;24.25;15.57;;;4.30;99.90;;;;;;5016374;28;20042;-64
2024/02/02 03:05:06;;;;;;;23.90;14.63;;;4.30;99.90;;;;;;5029691;28;20045;-64
2024/02/02 03:07:38;;;;;;;23.73;15.55;;;4.30;99.90;;;;;;4998241;28;20511;-64
2024/02/02 03:10:10;;;;;;;24.70;14.93;;;4.30;99.90;;;;;;5026516;28;20049;-64
2024/02/02 03:12:42;;;;;;;26.60;15.77;;;4.30;99.90;;;;;;5029116;28;20705;-64
2024/02/02 03:15:14;;;;;;;22.73;14.85;;;4.30;99.90;;;;;;5027430;28;20111;-64
2024/02/02 03:17:48;;;;;;;26.38;16.20;;;4.30;99.90;;;;;;5010281;28;20041;-64
2024/02/02 03:20:20;;;;;;;27.23;15.45;;;4.30;99.90;;;;;;5028559;28;20121;-64
2024/02/02 03:22:53;;;;;;;26.50;16.15;;;4.30;99.90;;;;;;5028669;28;20037;-64
2024/02/02 03:25:25;;;;;;;25.48;16.92;;;4.40;99.90;;;;;;5011477;28;20042;-64
2024/02/02 03:27:57;;;;;;;27.13;16.75;;;4.30;99.90;;;;;;5027193;28;20045;-64
2024/02/02 03:30:29;;;;;;;24.20;15.30;;;4.30;99.90;;;;;;5013701;28;20046;-64
2024/02/02 03:33:01;;;;;;;28.23;15.95;;;4.40;99.90;;;;;;5024875;28;20045;-64
2024/02/02 03:35:28;;;;;;;21.27;14.48;;;4.40;99.90;;;;;;5024395;28;20033;-65
2024/02/02 03:38:00;;;;;;;23.95;15.00;;;4.50;99.90;;;;;;5030205;28;20055;-64
2024/02/02 03:40:27;;;;;;;21.77;13.10;;;4.50;99.90;;;;;;5011116;28;20037;-64
2024/02/02 03:42:59;;;;;;;21.25;14.07;;;4.50;99.90;;;;;;5026733;28;20037;-64
2024/02/02 03:45:31;;;;;;;23.63;14.68;;;4.50;99.90;;;;;;5011891;28;20045;-64
2024/02/02 03:48:00;;;;;;;22.23;13.88;;;4.60;99.90;;;;;;5010937;28;20118;-64
2024/02/02 03:50:32;;;;;;;;;;;4.60;99.90;;;;;;5026985;28;20139;-64
2024/02/02 03:53:04;;;;;;;20.90;13.40;;;4.60;99.90;;;;;;5015377;28;19931;-64
2024/02/02 03:55:35;;;;;;;21.50;12.60;;;4.60;99.90;;;;;;5026646;28;20045;-64
2024/02/02 03:58:07;;;;;;;22.25;13.52;;;4.60;99.90;;;;;;5023373;28;20047;-64
2024/02/02 04:00:39;;;;;;;21.40;13.90;;;4.60;99.90;;;;;;4999551;28;20084;-64
2024/02/02 04:03:11;;;;;;;18.40;11.98;;;4.60;99.90;;;;;;5024274;28;20034;-64
2024/02/02 04:05:43;;;;;;;18.63;11.95;;;4.60;99.90;;;;;;5028383;28;20037;-64
2024/02/02 04:08:15;;;;;;;21.05;12.93;;;4.60;99.90;;;;;;5028750;28;20576;-64
2024/02/02 04:10:47;;;;;;;17.20;11.90;;;4.60;99.90;;;;;;5027141;28;20049;-64
2024/02/02 04:13:19;;;;;;;16.70;11.88;;;4.60;99.90;;;;;;5004405;28;20123;-64
2024/02/02 04:15:46;;;;;;;19.23;11.52;;;4.60;99.90;;;;;;5025607;28;20121;-64
2024/02/02 04:18:17;;;;;;;15.13;11.10;;;4.60;99.90;;;;;;5020586;28;20044;-64
2024/02/02 04:20:44;;;;;;;18.20;11.63;;;4.60;99.90;;;;;;5023574;28;20112;-64
2024/02/02 04:23:16;;;;;;;16.10;11.27;;;4.60;99.90;;;;;;5028318;28;20044;-64
2024/02/02 04:25:48;;;;;;;16.38;11.73;;;4.50;99.90;;;;;;5024873;28;20045;-64
2024/02/02 04:28:20;;;;;;;16.52;10.82;;;4.60;99.90;;;;;;5032311;28;20037;-64
2024/02/02 04:30:52;;;;;;;16.05;11.60;;;4.60;99.90;;;;;;5036352;28;20547;-64
2024/02/02 04:33:24;;;;;;;15.93;11.05;;;4.60;99.90;;;;;;5031106;28;20496;-64
2024/02/02 04:35:56;;;;;;;15.65;11.20;;;4.60;99.90;;;;;;5034637;28;20060;-64
2024/02/02 04:38:27;;;;;;;15.18;10.82;;;4.70;99.90;;;;;;5018322;28;20127;-64
2024/02/02 04:40:59;;;;;;;16.08;10.77;;;4.60;99.90;;;;;;5035599;28;20041;-64
2024/02/02 04:43:26;;;;;;;15.27;10.73;;;4.60;99.90;;;;;;5035138;28;20670;-64
2024/02/02 04:45:58;;;;;;;15.23;9.93;;;4.60;99.90;;;;;;5029893;28;20041;-64
2024/02/02 04:48:30;;;;;;;14.07;9.90;;;4.50;99.90;;;;;;4999324;28;20038;-64
2024/02/02 04:50:57;;;;;;;15.18;9.80;;;4.50;99.90;;;;;;5019488;28;20068;-64
2024/02/02 04:53:29;;;;;;;13.82;10.18;;;4.50;99.90;;;;;;5032689;28;20204;-65
2024/02/02 04:56:01;;;;;;;13.13;9.25;;;4.50;99.90;;;;;;5016907;28;20497;-64
2024/02/02 04:58:28;;;;;;;13.52;9.60;;;4.50;99.90;;;;;;5010380;28;20041;-64
2024/02/02 05:01:00;;;;;;;15.73;10.30;;;4.50;99.90;;;;;;5034679;28;20099;-70
2024/02/02 05:03:32;;;;;;;14.73;10.30;;;4.60;99.90;;;;;;5036272;28;20033;-64
2024/02/02 05:06:04;;;;;;;13.82;10.02;;;4.50;99.90;;;;;;5035534;28;20505;-65
2024/02/02 05:08:36;;;;;;;16.35;9.65;;;4.50;99.90;;;;;;5035435;28;20524;-65
2024/02/02 05:11:08;;;;;;;15.88;10.65;;;4.50;99.90;;;;;;5016028;28;20045;-65
2024/02/02 05:13:40;;;;;;;15.90;10.40;;;4.40;99.90;;;;;;5035747;28;20049;-65
2024/02/02 05:16:13;;;;;;;14.68;9.70;;;4.40;99.90;;;;;;4997455;28;20042;-64
2024/02/02 05:18:40;;;;;;;13.27;9.52;;;4.40;99.90;;;;;;5018216;28;20421;-65
2024/02/02 05:21:12;;;;;;;13.27;9.70;;;4.40;99.90;;;;;;5017946;28;20038;-64
2024/02/02 05:23:44;;;;;;;14.82;10.10;;;4.30;99.90;;;;;;5018264;28;20037;-66
2024/02/02 05:26:17;;;;;;;13.48;9.82;;;4.30;99.90;;;;;;5034390;28;20045;-64
2024/02/02 05:28:48;;;;;;;15.32;9.75;;;4.30;99.90;;;;;;5033867;28;20143;-64
2024/02/02 05:31:16;;;;;;;17.70;11.63;;;4.30;99.90;;;;;;5034247;28;20068;-64
2024/02/02 05:33:48;;;;;;;15.75;10.55;;;4.30;99.90;;;;;;5035394;28;20114;-64
2024/02/02 05:36:15;;;;;;;11.90;8.82;;;4.30;99.90;;;;;;5014066;28;20391;-64
2024/02/02 05:38:42;;;;;;;15.38;9.15;;;4.40;99.90;;;;;;5009735;28;20446;-64
2024/02/02 05:41:14;;;;;;;14.23;9.50;;;4.40;99.90;;;;;;5014358;28;20061;-64
2024/02/02 05:43:40;;;;;;;12.20;8.80;;;4.40;99.90;;;;;;5027138;28;20033;-68
2024/02/02 05:46:12;;;;;;;12.25;8.57;;;4.50;99.90;;;;;;5004997;28;20037;-64
2024/02/02 05:48:44;;;;;;;13.85;9.02;;;4.40;99.90;;;;;;5025091;28;21214;-64
2024/02/02 05:51:16;;;;;;;13.23;8.85;;;4.50;99.90;;;;;;5029148;28;20408;-64
2024/02/02 05:53:48;;;;;;;11.15;7.50;;;4.50;99.90;;;;;;5009217;28;20045;-64
2024/02/02 05:56:20;;;;;;;11.27;7.78;;;4.60;99.90;;;;;;5006429;28;20580;-64
2024/02/02 05:58:52;;;;;;;12.02;8.32;;;4.50;99.90;;;;;;5011940;28;20063;-64
2024/02/02 06:01:24;;;;;;;11.30;7.93;;;4.60;99.90;;;;;;5028824;28;20509;-64
2024/02/02 06:03:58;;;;;;;12.23;8.65;;;4.60;99.90;;;;;;5027990;28;20048;-64
2024/02/02 06:06:30;;;;;;;10.38;7.43;;;4.50;99.90;;;;;;5018603;28;20046;-64
2024/02/02 06:09:02;;;;;;;12.68;8.20;;;4.50;99.90;;;;;;5006271;28;20123;-64
2024/02/02 06:11:34;;;;;;;11.68;7.53;;;4.60;99.90;;;;;;5027957;28;20052;-64
2024/02/02 06:14:01;;;;;;;12.35;7.60;;;4.60;99.90;;;;;;5027773;28;20073;-64
2024/02/02 06:16:33;;;;;;;13.38;9.07;;;4.60;99.90;;;;;;5006566;28;20040;-64
2024/02/02 06:19:05;;;;;;;12.18;8.50;;;4.60;99.90;;;;;;5029413;28;20041;-64
2024/02/02 06:21:37;;;;;;;13.10;8.77;;;4.60;99.90;;;;;;5029213;28;20051;-64
2024/02/02 06:24:09;;;;;;;11.85;8.25;;;4.50;99.90;;;;;;5027369;28;20116;-64
2024/02/02 06:26:40;;;;;;;12.68;8.63;;;4.50;99.90;;;;;;5008025;28;20059;-64
2024/02/02 06:29:07;;;;;;;13.73;9.27;;;4.50;99.90;;;;;;5029471;28;20493;-64
2024/02/02 06:31:34;;;;;;;13.63;8.68;;;4.60;99.90;;;;;;5029114;28;20049;-64
2024/02/02 06:34:01;;;;;;;11.38;7.88;;;4.50;99.90;;;;;;5031622;28;20124;-64
2024/02/02 06:36:33;;;;;;;14.68;9.65;;;4.50;99.90;;;;;;5027701;28;20124;-64
2024/02/02 06:39:05;;;;;;;12.93;9.18;;;4.50;99.90;;;;;;5023633;28;20034;-64
2024/02/02 06:41:37;;;;;;;11.60;8.52;;;4.50;99.90;;;;;;5010671;28;20673;-64
2024/02/02 06:44:09;;;;;;;16.48;9.70;;;4.50;99.90;;;;;;5010202;28;20580;-64
2024/02/02 06:46:36;;;;;;;16.80;9.57;;;4.50;99.90;;;;;;5023267;28;20391;-64
2024/02/02 06:49:08;;;;;;;14.68;9.35;;;4.50;99.90;;;;;;5008107;28;20056;-64
2024/02/02 06:51:35;;;;;;;18.63;10.52;;;4.50;99.90;;;;;;5027517;28;20103;-64
2024/02/02 06:54:07;;;;;;;16.42;10.45;;;4.50;99.90;;;;;;5024399;28;20041;-64
2024/02/02 06:56:42;;;;;;;14.73;9.27;;;4.50;99.90;;;;;;5025922;28;20852;-64
2024/02/02 06:59:09;;;;;;;14.00;9.15;;;4.50;99.90;;;;;;5006298;28;20033;-64
2024/02/02 07:01:42;;;;;;;14.77;8.60;;;4.50;99.90;;;;;;5026818;28;20419;-63
2024/02/02 07:04:14;;;;;;;14.68;8.65;;;4.60;99.90;;;;;;5003468;28;20124;-64
2024/02/02 07:06:47;;;;;;;16.57;10.00;;;4.60;99.90;;;;;;5009269;28;20041;-64
2024/02/02 07:09:19;;;;;;;15.75;8.68;;;4.70;99.90;;;;;;5021461;28;20124;-63
2024/02/02 07:11:55;;;;;;;15.65;9.23;;;4.70;99.90;;;;;;5027342;28;20037;-64
2024/02/02 07:14:47;;;;;;;13.90;8.75;;;4.70;99.90;;;;;;5026392;28;20072;-64
2024/02/02 07:17:37;;;;;;;12.52;8.32;;;4.70;99.90;;;;;;5012522;28;20037;-64
2024/02/02 07:20:22;;;;;;;13.73;9.00;;;4.70;99.90;;;;;;5008364;28;20045;-64
2024/02/02 07:22:56;;;;;;;14.00;8.60;;;4.80;99.90;;;;;;5028354;28;20191;-64
2024/02/02 07:25:24;;;;;;;14.32;8.30;;;4.80;99.90;;;;;;5025952;28;20111;-63
2024/02/02 07:28:04;;;;;;;15.80;9.52;;;4.80;99.90;;;;;;5028607;28;20030;-64
2024/02/02 07:30:50;;;;;;;15.80;10.50;;;4.80;99.90;;;;;;5025030;28;20140;-63
2024/02/02 07:33:43;;;;;;;16.45;9.95;;;4.90;99.90;;;;;;5005404;28;20053;-63
2024/02/02 07:36:31;;;;;;;16.55;10.57;;;4.80;99.90;;;;;;5026732;28;20045;-64
2024/02/02 07:39:05;;;;;;;16.00;9.20;;;4.90;99.90;;;;;;5026895;28;20049;-64
2024/02/02 07:41:37;;;;;;;17.73;10.93;;;4.80;99.90;;;;;;5026570;28;20096;-64
2024/02/02 07:44:04;;;;;;;16.92;10.85;;;4.80;99.90;;;;;;5007502;28;20030;-64
2024/02/02 07:46:36;;;;;;;21.52;10.00;;;4.80;99.90;;;;;;5026360;28;20042;-64
2024/02/02 07:49:03;;;;;;;18.38;10.38;;;4.80;99.90;;;;;;5025806;28;20509;-63
2024/02/02 07:51:37;;;;;;;14.63;9.73;;;4.80;99.90;;;;;;5021508;28;20056;-64
2024/02/02 07:54:04;;;;;;;17.10;9.70;;;4.80;99.90;;;;;;5027475;28;20375;-64
2024/02/02 07:56:36;;;;;;;17.33;10.32;;;4.90;99.90;;;;;;5023615;28;20052;-64
2024/02/02 07:59:08;;;;;;;18.40;10.13;;;4.90;99.90;;;;;;5028144;28;20100;-64
2024/02/02 08:01:40;;;;;;;16.75;9.95;;;4.90;99.90;;;;;;5021909;28;20413;-63
2024/02/02 08:04:07;;;;;;;17.33;9.50;;;4.90;99.90;;;;;;5028665;28;20661;-63
2024/02/02 08:06:39;;;;;;;15.15;9.18;;;4.90;99.90;;;;;;5026981;28;20120;-63
2024/02/02 08:09:11;;;;;;;14.73;8.20;;;5.00;99.90;;;;;;5025553;28;20047;-63
2024/02/02 08:11:42;;;;;;;17.80;10.18;;;5.00;99.90;;;;;;5030104;28;20077;-64
2024/02/02 08:14:14;;;;;;;16.98;10.52;;;5.00;99.90;;;;;;5027407;28;20042;-63
2024/02/02 08:16:47;;;;;;;16.48;9.95;;;5.10;99.90;;;;;;5011991;28;20052;-64
2024/02/02 08:19:13;;;;;;;16.45;9.93;;;5.10;99.90;;;;;;5025615;28;20117;-64
2024/02/02 08:21:40;;;;;;;15.52;8.80;;;5.10;99.90;;;;;;5028934;28;20567;-64
2024/02/02 08:24:12;;;;;;;13.57;8.48;;;5.20;99.90;;;;;;5029523;28;20049;-64
2024/02/02 08:26:44;;;;;;;13.23;8.73;;;5.20;99.90;;;;;;5025840;28;20041;-63
2024/02/02 08:29:16;;;;;;;13.27;8.55;;;5.30;99.90;;;;;;5006016;28;20052;-64
2024/02/02 08:31:48;;;;;;;12.80;8.30;;;5.30;99.90;;;;;;5026623;28;20498;-63
2024/02/02 08:34:21;;;;;;;13.15;8.18;;;5.30;99.90;;;;;;5032192;28;20137;-64
2024/02/02 08:36:48;;;;;;;12.60;8.45;;;5.40;99.90;;;;;;5029614;28;20052;-64
2024/02/02 08:39:19;;;;;;;11.43;7.40;;;5.40;99.90;;;;;;5010014;28;20048;-63
2024/02/02 08:41:51;;;;;;;12.32;7.78;;;5.50;99.90;;;;;;5029388;28;20057;-64
2024/02/02 08:44:23;;;;;;;12.05;7.82;;;5.50;99.90;;;;;;5031859;28;20050;-64
2024/02/02 08:46:55;;;;;;;14.35;8.98;;;5.50;99.90;;;;;;4996828;28;20042;-63
2024/02/02 08:49:45;;;;;;;12.63;7.70;;;5.50;99.90;;;;;;4995856;28;20041;-63
2024/02/02 08:52:38;;;;;;;13.05;7.90;;;5.60;99.90;;;;;;5027869;28;20049;-64
2024/02/02 08:55:45;;;;;;;13.18;8.00;;;5.60;99.90;;;;;;5026866;28;20047;-63
2024/02/02 08:58:27;;;;;;;12.60;7.85;;;5.60;99.90;;;;;;5006199;28;20095;-64
2024/02/02 09:00:59;;;;;;;12.70;7.40;;;5.60;99.90;;;;;;5008570;28;20760;-63
2024/02/02 09:03:43;;;;;;;12.27;7.60;;;5.60;99.90;;;;;;5027439;28;20038;-62
2024/02/02 09:06:41;;;;;;;12.10;7.15;;;5.70;99.90;;;;;;5027827;28;20112;-62
2024/02/02 09:09:17;;;;;;;13.80;8.30;;;5.70;99.90;;;;;;5029788;28;20456;-62
2024/02/02 09:11:50;;;;;;;13.18;9.02;;;5.70;99.90;;;;;;5026925;28;20752;-62
2024/02/02 09:14:17;;;;;;;12.73;6.78;;;5.80;99.90;;;;;;5037977;28;20647;-62
2024/02/02 09:16:53;;;;;;;12.57;7.72;;;5.80;99.90;;;;;;5002445;28;20044;-62
2024/02/02 09:19:27;;;;;;;11.63;8.10;;;5.80;99.90;;;;;;5031161;28;20039;-63
2024/02/02 09:22:09;;;;;;;11.05;7.72;;;5.80;99.90;;;;;;5013991;28;20413;-63
2024/02/02 09:24:36;;;;;;;11.20;7.43;;;5.80;99.90;;;;;;5013092;28;20132;-63
2024/02/02 09:27:20;;;;;;;14.88;8.27;;;5.80;99.90;;;;;;5011832;28;20041;-66
2024/02/02 09:29:49;;;;;;;10.45;7.05;;;5.90;99.90;;;;;;5034188;28;20045;-65
2024/02/02 09:32:21;;;;;;;9.55;6.70;;;5.90;99.90;;;;;;5015842;28;20476;-63
2024/02/02 09:35:00;;;;;;;11.25;7.63;;;5.90;99.90;;;;;;5030818;28;20745;-63
2024/02/02 09:37:50;;;;;;;11.10;7.60;;;5.80;99.90;;;;;;5031683;28;20125;-63
2024/02/02 09:40:39;;;;;;;12.02;7.53;;;5.80;99.90;;;;;;5012792;28;20095;-63
2024/02/02 09:43:44;;;;;;;12.27;7.63;;;5.80;99.90;;;;;;5031081;28;20511;-63
2024/02/02 09:46:31;;;;;;;10.15;6.88;;;5.80;99.90;;;;;;4990048;28;20151;-63
2024/02/02 09:49:09;;;;;;;10.30;6.18;;;5.70;99.90;;;;;;5030897;28;20056;-63
2024/02/02 09:52:09;;;;;;;8.77;5.72;;;5.70;99.90;;;;;;5030128;28;20053;-63
2024/02/02 09:54:49;;;;;;;10.60;7.07;;;5.70;99.90;;;;;;5012870;28;20099;-63
2024/02/02 09:57:25;;;;;;;8.82;5.90;;;5.80;99.90;;;;;;5031292;28;20041;-63
2024/02/02 10:00:10;;;;;;;9.02;6.13;;;5.80;99.90;;;;;;5030702;28;20456;-63
2024/02/02 10:03:18;;;;;;;8.52;5.45;;;5.80;99.90;;;;;;5033555;28;20091;-63
2024/02/02 10:06:11;;;;;;;9.95;5.85;;;5.80;99.90;;;;;;4989987;28;20056;-63
2024/02/02 10:08:45;;;;;;;10.00;5.88;;;5.80;99.90;;;;;;5028013;28;20045;-63
2024/02/02 10:11:33;;;;;;;9.52;5.85;;;5.90;99.90;;;;;;5030325;28;20038;-63
2024/02/02 10:14:14;;;;;;;9.48;6.43;;;5.80;99.90;;;;;;5031218;28;20136;-63
2024/02/02 10:17:07;;;;;;;7.53;5.47;;;5.90;99.90;;;;;;5031749;28;20610;-63
2024/02/02 10:19:58;;;;;;;9.63;6.43;;;5.80;99.90;;;;;;5013306;28;20456;-63
2024/02/02 10:23:00;;;;;;;10.65;6.90;;;5.90;99.90;;;;;;5028612;28;20050;-63
2024/02/02 10:25:32;;;;;;;10.77;7.32;;;5.90;99.90;;;;;;5027977;28;20126;-63
2024/02/02 10:28:06;;;;;;;11.60;7.38;;;5.90;99.90;;;;;;5027600;28;20048;-63
2024/02/02 10:30:49;;;;;;;;;;;5.90;99.90;;;;;;5031567;28;20064;-63
2024/02/02 10:33:52;;;;;;;11.02;6.53;;;6.00;99.90;;;;;;5026915;28;19924;-63
2024/02/02 10:36:58;;;;;;;10.20;6.30;;;6.00;99.90;;;;;;5005616;28;20042;-63
2024/02/02 10:39:45;;;;;;;10.15;6.30;;;6.10;99.90;;;;;;5029536;28;20063;-63
2024/02/02 10:42:42;;;;;;;10.60;6.50;;;6.10;99.90;;;;;;5030795;28;20041;-63
2024/02/02 10:45:14;;;;;;;11.45;7.22;;;6.20;99.90;;;;;;5029599;28;20048;-63
2024/02/02 10:47:51;;;;;;;12.23;7.32;;;6.20;99.90;;;;;;5025296;28;20103;-63
2024/02/02 10:50:41;;;;;;;10.77;7.13;;;6.20;99.90;;;;;;5026996;28;20501;-63
2024/02/02 10:53:34;;;;;;;12.32;6.78;;;6.20;99.90;;;;;;5007363;28;20041;-63
2024/02/02 10:56:34;;;;;;;11.13;6.50;;;6.30;99.90;;;;;;5029898;28;20049;-63
2024/02/02 10:59:42;;;;;;;12.00;7.13;;;6.30;99.90;;;;;;5027785;28;20045;-63
2024/02/02 11:02:18;;;;;;;10.90;6.38;;;6.30;99.90;;;;;;5027265;28;20056;-63
2024/02/02 11:05:11;;;;;;;10.07;6.63;;;6.30;99.90;;;;;;5029859;28;20042;-63
2024/02/02 11:07:56;;;;;;;10.63;6.32;;;6.40;99.90;;;;;;5007597;28;20069;-63
2024/02/02 11:10:34;;;;;;;12.43;6.95;;;6.50;99.90;;;;;;5009141;28;20052;-63
2024/02/02 11:13:11;;;;;;;9.57;6.50;;;6.50;99.90;;;;;;5027131;28;20056;-63
2024/02/02 11:16:02;;;;;;;9.70;6.28;;;6.60;99.90;;;;;;5008601;28;20049;-63
2024/02/02 11:18:46;;;;;;;10.73;6.72;;;6.60;99.90;;;;;;5030858;28;20036;-63
2024/02/02 11:21:38;;;;;;;10.32;6.82;;;6.60;99.90;;;;;;5026535;28;20505;-63
2024/02/02 11:24:31;;;;;;;10.55;6.88;;;6.80;99.90;;;;;;5029860;28;20037;-63
2024/02/02 11:27:32;;;;;;;9.93;6.28;;;6.90;99.90;;;;;;5027824;28;20064;-63
2024/02/02 11:30:06;;;;;;;9.50;6.50;;;7.00;99.90;;;;;;5021472;28;20061;-63
2024/02/02 11:32:57;;;;;;;10.05;5.63;;;7.00;99.90;;;;;;5030224;28;20095;-63
2024/02/02 11:35:44;;;;;;;8.57;5.07;;;7.10;99.90;;;;;;5030672;28;20095;-63
2024/02/02 11:38:30;;;;;;;6.40;4.95;;;7.10;99.90;;;;;;5027713;28;20035;-63
2024/02/02 11:41:02;;;;;;;6.72;4.40;;;7.20;99.90;;;;;;5026745;28;20523;-63
2024/02/02 11:43:35;;;;;;;5.85;4.30;;;7.20;99.90;;;;;;5029901;28;20181;-63
2024/02/02 11:46:08;;;;;;;6.20;3.88;;;7.20;99.90;;;;;;5028561;28;20056;-63
2024/02/02 11:48:43;;;;;;;5.35;3.72;;;7.20;99.90;;;;;;5027490;28;20508;-63
2024/02/02 11:51:16;;;;;;;5.68;3.72;;;7.20;99.90;;;;;;5035068;28;20501;-63
2024/02/02 11:54:34;;;;;;;5.80;3.72;;;7.20;99.90;;;;;;5026610;28;20056;-63
2024/02/02 11:57:11;;;;;;;7.03;4.22;;;7.20;99.90;;;;;;5020374;28;20527;-63
2024/02/02 11:59:47;;;;;;;6.65;4.43;;;7.30;99.90;;;;;;5026100;28;20044;-63
2024/02/02 12:02:28;;;;;;;6.13;4.40;;;7.30;99.90;;;;;;5024619;28;20045;-62
2024/02/02 12:05:21;;;;;;;7.18;3.92;;;7.30;99.90;;;;;;5024651;28;20123;-63
2024/02/02 12:08:05;;;;;;;5.30;3.60;;;7.40;99.90;;;;;;5026455;28;20041;-65
2024/02/02 12:10:41;;;;;;;7.45;4.20;;;7.40;99.90;;;;;;5027041;28;20120;-63
2024/02/02 12:13:23;;;;;;;6.22;4.22;;;7.40;99.90;;;;;;5026863;28;20041;-63
2024/02/02 12:15:57;;;;;;;5.57;3.80;;;7.50;99.90;;;;;;5027574;28;20128;-63
2024/02/02 12:18:24;;;;;;;5.95;4.07;;;7.50;99.90;;;;;;5027565;28;20037;-63
2024/02/02 12:20:56;;;;;;;7.10;4.32;;;7.60;99.90;;;;;;5028061;28;20037;-63
2024/02/02 12:23:23;;;;;;;6.88;4.75;;;7.60;99.90;;;;;;5028742;28;20030;-63
2024/02/02 12:25:55;;;;;;;7.00;4.65;;;7.60;99.90;;;;;;5026948;28;20046;-63
2024/02/02 12:28:27;;;;;;;7.75;4.90;;;7.70;99.90;;;;;;5028072;28;20041;-63
2024/02/02 12:30:59;;;;;;;7.65;4.88;;;7.70;99.90;;;;;;5028536;28;20043;-63
2024/02/02 12:33:30;;;;;;;6.82;4.80;;;7.60;99.90;;;;;;5009920;28;20417;-63
2024/02/02 12:36:02;;;;;;;7.47;5.60;;;7.60;99.90;;;;;;5024139;28;20124;-63
2024/02/02 12:38:34;;;;;;;7.47;4.93;;;7.60;99.90;;;;;;5024186;28;20132;-63
2024/02/02 12:41:08;;;;;;;8.80;5.47;;;7.60;99.90;;;;;;4997798;28;20137;-63
2024/02/02 12:43:46;;;;;;;7.95;5.55;;;7.60;99.90;;;;;;5028890;28;20037;-63
2024/02/02 12:46:18;;;;;;;7.30;5.45;;;7.60;99.90;;;;;;5035099;28;20037;-63
2024/02/02 12:48:45;;;;;;;9.02;5.95;;;7.60;99.90;;;;;;5033467;28;20575;-63
2024/02/02 12:51:16;;;;;;;8.85;6.05;;;7.60;99.90;;;;;;5031112;28;20472;-63
2024/02/02 12:53:48;;;;;;;7.35;5.10;;;7.60;99.90;;;;;;5032659;28;20057;-63
2024/02/02 12:56:17;;;;;;;8.63;5.88;;;7.70;99.90;;;;;;5006191;28;20041;-63
2024/02/02 12:58:45;;;;;;;7.45;5.28;;;7.70;99.90;;;;;;5031005;28;20069;-63
2024/02/02 13:01:17;;;;;;;8.20;5.53;;;7.70;99.90;;;;;;5030710;28;20477;-65
2024/02/02 13:03:44;;;;;;;9.70;5.65;;;7.70;99.90;;;;;;5015822;28;20382;-63
2024/02/02 13:06:11;;;;;;;8.40;5.80;;;7.70;99.90;;;;;;5009998;28;20124;-63
2024/02/02 13:08:46;;;;;;;8.30;5.32;;;7.70;99.90;;;;;;5032854;28;20038;-63
2024/02/02 13:11:19;;;;;;;8.50;6.15;;;7.70;99.90;;;;;;5032941;28;20095;-63
2024/02/02 13:14:03;;;;;;;7.63;5.20;;;7.80;99.90;;;;;;5027795;28;20501;-63
2024/02/02 13:16:35;;;;;;;7.80;5.38;;;7.80;99.90;;;;;;5039127;28;20049;-63
2024/02/02 13:19:31;;;;;;;8.60;5.47;;;7.80;99.90;;;;;;5030635;28;20065;-63
2024/02/02 13:22:03;;;;;;;8.32;5.60;;;7.90;99.90;;;;;;5030154;28;20042;-64
2024/02/02 13:24:31;;;;;;;7.60;5.50;;;7.90;99.90;;;;;;5014580;28;20535;-64